createdAt,value
2018-09-18T00:01:07.502Z,15.53
2018-09-18T00:03:35.939Z,15.27
2018-09-18T00:06:04.744Z,18.07
2018-09-18T00:08:32.488Z,18.60
2018-09-18T00:11:00.813Z,15.80
2018-09-18T00:13:29.728Z,13.47
2018-09-18T00:15:57.465Z,12.83
2018-09-18T00:18:26.374Z,10.10
2018-09-18T00:20:54.688Z,8.63
2018-09-18T00:23:23.005Z,7.00
2018-09-18T00:25:51.321Z,5.27
2018-09-18T00:28:19.165Z,5.00
2018-09-18T00:30:47.958Z,4.07
2018-09-18T00:33:15.689Z,4.50
2018-09-18T00:35:44.586Z,3.63
2018-09-18T00:38:12.917Z,3.30
2018-09-18T00:40:40.674Z,3.80
2018-09-18T00:43:09.568Z,3.57
2018-09-18T00:45:37.304Z,3.33
2018-09-18T00:48:06.191Z,3.60
2018-09-18T00:50:34.503Z,3.97
2018-09-18T00:53:02.817Z,3.57
2018-09-18T00:55:31.131Z,3.63
2018-09-18T00:57:58.858Z,4.70
2018-09-18T01:00:27.758Z,4.63
2018-09-18T01:02:56.081Z,4.40
2018-09-18T01:05:23.825Z,4.70
2018-09-18T01:07:52.720Z,4.57
2018-09-18T01:10:20.454Z,4.53
2018-09-18T01:12:48.768Z,5.40
2018-09-18T01:15:17.080Z,5.20
2018-09-18T01:17:45.979Z,4.70
2018-09-18T01:20:14.301Z,4.50
2018-09-18T01:22:42.612Z,4.30
2018-09-18T01:25:10.395Z,4.17
2018-09-18T01:27:38.668Z,4.40
2018-09-18T01:30:06.999Z,4.50
2018-09-18T01:32:35.890Z,5.53
2018-09-18T01:35:04.221Z,8.77
2018-09-18T01:37:32.548Z,9.50
2018-09-18T01:40:00.889Z,16.97
2018-09-18T01:42:28.631Z,25.40
2018-09-18T01:44:56.968Z,23.10
2018-09-18T01:47:25.869Z,23.97
2018-09-18T01:49:53.613Z,23.00
2018-09-18T01:52:22.520Z,16.40
2018-09-18T01:54:50.845Z,17.83
2018-09-18T01:57:18.589Z,16.70
2018-09-18T01:59:47.503Z,14.70
2018-09-18T02:02:15.247Z,10.73
2018-09-18T02:04:43.568Z,10.77
2018-09-18T02:07:11.889Z,18.17
2018-09-18T02:09:40.794Z,18.03
2018-09-18T02:12:09.126Z,18.50
2018-09-18T02:14:37.463Z,18.20
2018-09-18T02:17:05.796Z,16.80
2018-09-18T02:19:33.547Z,16.47
2018-09-18T02:22:01.902Z,13.27
2018-09-18T02:24:30.206Z,13.23
2018-09-18T02:26:59.114Z,12.90
2018-09-18T02:29:27.441Z,10.73
2018-09-18T02:31:55.764Z,8.70
2018-09-18T02:34:23.497Z,6.27
2018-09-18T02:36:52.399Z,7.17
2018-09-18T02:39:20.721Z,7.43
2018-09-18T02:41:49.048Z,8.00
2018-09-18T02:44:16.791Z,7.07
2018-09-18T02:46:45.168Z,6.63
2018-09-18T02:49:14.020Z,6.77
2018-09-18T02:51:42.340Z,6.47
2018-09-18T02:54:10.667Z,4.90
2018-09-18T02:56:38.989Z,5.50
2018-09-18T02:59:07.318Z,6.03
2018-09-18T03:01:35.655Z,11.23
2018-09-18T03:04:03.413Z,17.93
2018-09-18T03:06:31.739Z,13.17
2018-09-18T03:09:00.640Z,7.37
2018-09-18T03:11:28.484Z,6.83
2018-09-18T03:13:57.294Z,7.27
2018-09-18T03:16:25.047Z,6.90
2018-09-18T03:18:53.949Z,8.50
2018-09-18T03:21:21.713Z,9.10
2018-09-18T03:23:50.618Z,8.37
2018-09-18T03:26:18.935Z,7.83
2018-09-18T03:28:47.255Z,10.47
2018-09-18T03:31:15.049Z,10.63
2018-09-18T03:33:43.372Z,12.50
2018-09-18T03:36:11.701Z,12.30
2018-09-18T03:38:42.734Z,11.67
2018-09-18T03:41:08.360Z,11.20
2018-09-18T03:43:36.704Z,11.43
2018-09-18T03:46:05.048Z,13.03
2018-09-18T03:48:33.965Z,11.17
2018-09-18T03:51:01.823Z,11.67
2018-09-18T03:53:30.060Z,11.70
2018-09-18T03:55:58.397Z,11.80
2018-09-18T03:58:26.716Z,8.57
2018-09-18T04:00:55.045Z,7.97
2018-09-18T04:03:23.963Z,8.20
2018-09-18T04:05:52.306Z,9.00
2018-09-18T04:08:20.064Z,12.30
2018-09-18T04:10:48.404Z,10.37
2018-09-18T04:13:17.325Z,10.97
2018-09-18T04:15:45.075Z,11.83
2018-09-18T04:18:13.992Z,11.87
2018-09-18T04:20:41.755Z,10.83
2018-09-18T04:23:10.090Z,10.27
2018-09-18T04:25:38.423Z,23.97
2018-09-18T04:28:07.338Z,11.57
2018-09-18T04:30:36.128Z,10.70
2018-09-18T04:33:04.971Z,10.83
2018-09-18T04:35:32.717Z,9.93
2018-09-18T04:38:01.631Z,11.67
2018-09-18T04:40:29.384Z,11.13
2018-09-18T04:42:57.717Z,10.50
2018-09-18T04:45:26.157Z,8.87
2018-09-18T04:47:55.059Z,7.20
2018-09-18T04:50:23.398Z,6.87
2018-09-18T04:52:51.724Z,7.97
2018-09-18T04:55:19.460Z,9.43
2018-09-18T04:57:48.379Z,9.20
2018-09-18T05:00:16.716Z,8.10
2018-09-18T05:02:44.461Z,10.43
2018-09-18T05:05:12.801Z,13.90
2018-09-18T05:07:41.725Z,15.07
2018-09-18T05:10:10.088Z,14.17
2018-09-18T05:12:38.424Z,15.77
2018-09-18T05:15:06.786Z,17.20
2018-09-18T05:17:35.111Z,17.00
2018-09-18T05:20:05.686Z,36.97
2018-09-18T05:22:37.539Z,132.23
2018-09-18T05:25:05.256Z,73.77
2018-09-18T05:27:38.902Z,55.60
2018-09-18T05:30:08.123Z,16.50
2018-09-18T05:35:20.128Z,12.30
2018-09-18T05:37:48.475Z,11.97
2018-09-18T05:40:16.879Z,13.50
2018-09-18T05:42:45.212Z,13.03
2018-09-18T05:45:13.529Z,12.87
2018-09-18T05:47:41.344Z,11.97
2018-09-18T05:50:10.293Z,12.37
2018-09-18T05:52:38.081Z,9.93
2018-09-18T05:55:06.976Z,9.43
2018-09-18T05:57:35.331Z,9.10
2018-09-18T06:00:03.668Z,9.87
2018-09-18T06:02:32.036Z,10.33
2018-09-18T06:05:00.355Z,9.87
2018-09-18T06:07:28.687Z,10.90
2018-09-18T06:09:57.016Z,64.87
2018-09-18T06:12:25.672Z,28.50
2018-09-18T06:14:54.008Z,16.83
2018-09-18T06:17:29.000Z,11.43
2018-09-18T06:19:57.348Z,11.60
2018-09-18T06:22:25.690Z,10.80
2018-09-18T06:24:54.021Z,10.10
2018-09-18T06:27:21.768Z,9.87
2018-09-18T06:29:50.687Z,9.70
2018-09-18T06:32:19.029Z,7.87
2018-09-18T06:34:46.782Z,7.47
2018-09-18T06:37:15.695Z,7.30
2018-09-18T06:39:44.036Z,6.90
2018-09-18T06:42:12.392Z,6.57
2018-09-18T06:44:40.713Z,8.77
2018-09-18T06:47:08.473Z,6.93
2018-09-18T06:49:36.830Z,6.30
2018-09-18T06:52:05.764Z,6.13
2018-09-18T06:54:34.129Z,6.27
2018-09-18T06:57:03.082Z,6.13
2018-09-18T06:59:31.232Z,6.40
2018-09-18T07:01:59.590Z,6.30
2018-09-18T07:04:27.303Z,6.53
2018-09-18T07:06:56.475Z,6.70
2018-09-18T07:09:24.574Z,6.43
2018-09-18T07:11:52.949Z,6.63
2018-09-18T07:14:21.270Z,6.87
2018-09-18T07:16:49.604Z,6.97
2018-09-18T07:19:17.954Z,7.57
2018-09-18T07:21:46.370Z,8.27
2018-09-18T07:24:14.194Z,6.63
2018-09-18T07:26:42.533Z,5.87
2018-09-18T07:29:11.437Z,5.87
2018-09-18T07:31:39.987Z,5.83
2018-09-18T07:34:07.513Z,5.77
2018-09-18T07:36:36.422Z,5.80
2018-09-18T07:39:04.749Z,6.53
2018-09-18T07:41:33.070Z,6.07
2018-09-18T07:44:01.406Z,6.33
2018-09-18T07:46:29.162Z,6.10
2018-09-18T07:48:58.068Z,5.90
2018-09-18T07:51:26.453Z,6.60
2018-09-18T07:53:55.311Z,6.40
2018-09-18T07:56:23.632Z,7.00
2018-09-18T07:58:51.965Z,6.57
2018-09-18T08:01:19.713Z,6.43
2018-09-18T08:03:48.637Z,6.40
2018-09-18T08:06:17.936Z,7.50
2018-09-18T08:08:46.266Z,7.40
2018-09-18T08:11:14.590Z,7.20
2018-09-18T08:13:42.928Z,8.27
2018-09-18T08:16:11.263Z,8.03
2018-09-18T08:18:39.602Z,6.97
2018-09-18T08:21:07.363Z,8.40
2018-09-18T08:23:36.261Z,8.57
2018-09-18T08:26:04.019Z,8.87
2018-09-18T08:28:32.932Z,14.77
2018-09-18T08:31:01.269Z,11.07
2018-09-18T08:33:29.611Z,8.80
2018-09-18T08:35:57.937Z,8.43
2018-09-18T08:38:25.686Z,5.80
2018-09-18T08:40:54.616Z,6.30
2018-09-18T08:43:22.345Z,3.37
2018-09-18T08:45:50.695Z,4.03
2018-09-18T08:48:19.607Z,5.87
2018-09-18T08:50:47.931Z,3.17
2018-09-18T08:53:16.282Z,3.13
2018-09-18T08:55:44.049Z,3.30
2018-09-18T08:58:12.938Z,3.23
2018-09-18T09:00:41.322Z,3.27
2018-09-18T09:03:09.849Z,3.80
2018-09-18T09:05:38.180Z,3.00
2018-09-18T09:08:06.595Z,3.90
2018-09-18T09:10:34.954Z,3.47
2018-09-18T09:13:03.189Z,3.63
2018-09-18T09:15:31.541Z,3.40
2018-09-18T09:17:59.344Z,3.17
2018-09-18T09:20:28.177Z,2.90
2018-09-18T09:22:56.723Z,3.60
2018-09-18T09:25:24.896Z,3.27
2018-09-18T09:27:53.281Z,3.40
2018-09-18T09:30:21.014Z,3.00
2018-09-18T09:32:49.914Z,2.87
2018-09-18T09:35:18.238Z,2.93
2018-09-18T09:37:45.985Z,3.00
2018-09-18T09:40:14.892Z,2.83
2018-09-18T09:42:42.641Z,3.17
2018-09-18T09:45:11.617Z,2.80
2018-09-18T09:47:39.880Z,2.93
2018-09-18T09:50:08.830Z,3.00
2018-09-18T09:52:37.309Z,3.00
2018-09-18T09:55:05.670Z,3.00
2018-09-18T09:57:33.989Z,3.20
2018-09-18T10:00:01.731Z,3.17
2018-09-18T10:02:30.643Z,2.77
2018-09-18T10:04:59.589Z,2.90
2018-09-18T10:07:27.352Z,3.00
2018-09-18T10:09:55.682Z,2.63
2018-09-18T10:12:24.620Z,7.70
2018-09-18T10:14:52.942Z,5.03
2018-09-18T10:17:21.275Z,2.87
2018-09-18T10:19:49.607Z,2.80
2018-09-18T10:22:17.943Z,3.00
2018-09-18T10:24:46.293Z,2.73
2018-09-18T10:27:14.620Z,3.10
2018-09-18T10:29:42.950Z,2.97
2018-09-18T10:32:10.719Z,2.87
2018-09-18T10:34:39.604Z,3.33
2018-09-18T10:37:07.921Z,3.23
2018-09-18T10:39:35.681Z,3.43
2018-09-18T10:42:04.695Z,3.60
2018-09-18T10:44:33.570Z,3.57
2018-09-18T10:47:00.716Z,3.53
2018-09-18T10:49:29.646Z,3.17
2018-09-18T10:51:57.958Z,3.40
2018-09-18T10:54:25.703Z,3.63
2018-09-18T10:56:54.662Z,6.53
2018-09-18T10:59:22.986Z,7.27
2018-09-18T11:01:51.365Z,3.63
2018-09-18T11:04:19.665Z,3.53
2018-09-18T11:06:48.006Z,3.07
2018-09-18T11:09:16.348Z,3.23
2018-09-18T11:11:44.057Z,3.20
2018-09-18T11:14:13.040Z,6.57
2018-09-18T11:16:41.267Z,3.67
2018-09-18T11:19:09.612Z,2.90
2018-09-18T11:21:37.348Z,3.10
2018-09-18T11:24:06.331Z,2.80
2018-09-18T11:26:33.976Z,2.90
2018-09-18T11:29:02.894Z,3.13
2018-09-18T11:31:31.209Z,4.23
2018-09-18T11:33:59.549Z,4.50
2018-09-18T11:36:27.287Z,6.50
2018-09-18T11:38:56.192Z,10.33
2018-09-18T11:41:24.529Z,3.27
2018-09-18T11:43:52.853Z,4.63
2018-09-18T11:46:20.607Z,3.90
2018-09-18T11:48:48.949Z,16.15
2018-09-18T11:51:17.276Z,8.15
2018-09-18T11:53:46.160Z,4.35
2018-09-18T11:56:13.918Z,6.57
2018-09-18T11:58:42.267Z,3.20
2018-09-18T12:01:11.169Z,6.45
2018-09-18T12:03:39.501Z,4.55
2018-09-18T12:06:07.867Z,3.28
2018-09-18T12:08:35.644Z,2.95
2018-09-18T12:11:04.511Z,3.20
2018-09-18T12:13:32.837Z,3.10
2018-09-18T12:16:01.159Z,2.83
2018-09-18T12:18:28.904Z,2.45
2018-09-18T12:20:57.799Z,2.45
2018-09-18T12:23:25.531Z,2.70
2018-09-18T12:25:54.428Z,2.87
2018-09-18T12:28:22.779Z,3.12
2018-09-18T12:30:51.119Z,3.00
2018-09-18T12:33:19.448Z,2.90
2018-09-18T12:35:47.824Z,3.08
2018-09-18T12:38:15.517Z,3.08
2018-09-18T12:40:44.428Z,2.90
2018-09-18T12:43:12.177Z,2.87
2018-09-18T12:45:40.510Z,3.22
2018-09-18T12:48:09.481Z,3.40
2018-09-18T12:50:37.756Z,11.00
2018-09-18T12:53:06.066Z,8.30
2018-09-18T12:55:34.389Z,3.53
2018-09-18T12:58:02.150Z,3.62
2018-09-18T13:00:31.093Z,2.75
2018-09-18T13:02:59.433Z,4.00
2018-09-18T13:05:27.824Z,3.30
2018-09-18T13:07:55.581Z,3.62
2018-09-18T13:10:23.857Z,3.60
2018-09-18T13:12:52.190Z,3.20
2018-09-18T13:15:21.121Z,3.53
2018-09-18T13:17:49.471Z,3.50
2018-09-18T13:20:17.218Z,3.37
2018-09-18T13:22:46.165Z,3.30
2018-09-18T13:25:14.477Z,3.50
2018-09-18T13:27:43.042Z,69.18
2018-09-18T13:30:11.967Z,8.35
2018-09-18T13:32:40.807Z,4.90
2018-09-18T13:35:09.162Z,3.95
2018-09-18T13:37:36.945Z,3.72
2018-09-18T13:40:05.885Z,3.72
2018-09-18T13:42:33.665Z,4.00
2018-09-18T13:45:02.609Z,3.72
2018-09-18T13:47:30.361Z,3.65
2018-09-18T13:49:59.272Z,3.87
2018-09-18T13:52:27.043Z,3.80
2018-09-18T13:54:55.955Z,3.83
2018-09-18T13:57:24.321Z,3.60
2018-09-18T13:59:52.067Z,3.00
2018-09-18T14:02:21.293Z,3.80
2018-09-18T14:04:49.922Z,3.30
2018-09-18T14:07:17.363Z,3.20
2018-09-18T14:09:45.438Z,3.20
2018-09-18T14:12:14.354Z,3.08
2018-09-18T14:14:42.417Z,3.40
2018-09-18T14:17:11.299Z,3.75
2018-09-18T14:19:39.653Z,3.30
2018-09-18T14:22:08.034Z,3.40
2018-09-18T14:24:37.039Z,3.05
2018-09-18T14:27:05.310Z,3.28
2018-09-18T14:29:33.635Z,3.60
2018-09-18T14:32:01.969Z,3.50
2018-09-18T14:34:30.306Z,3.85
2018-09-18T14:36:58.646Z,3.30
2018-09-18T14:39:26.387Z,3.37
2018-09-18T14:41:55.286Z,3.33
2018-09-18T14:44:23.044Z,4.30
2018-09-18T14:46:51.380Z,3.75
2018-09-18T14:49:19.702Z,4.65
2018-09-18T14:51:48.607Z,4.20
2018-09-18T14:54:16.961Z,4.28
2018-09-18T14:56:45.331Z,4.53
2018-09-18T14:59:13.019Z,3.80
2018-09-18T15:01:41.934Z,3.53
2018-09-18T15:04:10.299Z,5.55
2018-09-18T15:06:38.868Z,6.07
2018-09-18T15:09:06.969Z,3.30
2018-09-18T15:11:35.335Z,3.05
2018-09-18T15:14:04.092Z,3.55
2018-09-18T15:16:32.453Z,3.35
2018-09-18T15:19:00.242Z,7.25
2018-09-18T15:21:29.191Z,28.85
2018-09-18T15:23:56.911Z,3.62
2018-09-18T15:26:25.355Z,3.62
2018-09-18T15:28:53.681Z,3.87
2018-09-18T15:31:22.581Z,3.90
2018-09-18T15:33:50.921Z,3.30
2018-09-18T15:36:19.294Z,3.50
2018-09-18T15:38:47.630Z,3.92
2018-09-18T15:41:15.986Z,3.70
2018-09-18T15:43:43.756Z,3.78
2018-09-18T15:46:12.666Z,3.70
2018-09-18T15:48:41.029Z,3.90
2018-09-18T15:51:09.365Z,3.65
2018-09-18T15:53:37.111Z,3.70
2018-09-18T15:56:06.259Z,3.90
2018-09-18T15:58:34.374Z,4.30
2018-09-18T16:01:02.714Z,4.12
2018-09-18T16:03:31.330Z,4.18
2018-09-18T16:05:59.460Z,4.10
2018-09-18T16:08:27.807Z,4.10
2018-09-18T16:10:56.193Z,4.15
2018-09-18T16:13:24.518Z,3.90
2018-09-18T16:15:52.873Z,4.30
2018-09-18T16:18:21.224Z,4.55
2018-09-18T16:20:49.908Z,4.43
2018-09-18T16:23:18.668Z,4.87
2018-09-18T16:25:46.938Z,5.83
2018-09-18T16:28:15.274Z,6.87
2018-09-18T16:30:43.740Z,7.20
2018-09-18T16:33:12.062Z,6.60
2018-09-18T16:35:40.394Z,7.20
2018-09-18T16:38:08.810Z,6.23
2018-09-18T16:40:37.141Z,5.50
2018-09-18T16:43:05.442Z,5.20
2018-09-18T16:45:33.775Z,9.10
2018-09-18T16:48:02.109Z,15.67
2018-09-18T16:50:30.493Z,47.10
2018-09-18T16:52:58.835Z,20.70
2018-09-18T16:55:27.161Z,16.90
2018-09-18T16:57:56.217Z,6.37
2018-09-18T17:00:25.236Z,18.27
2018-09-18T17:02:53.575Z,36.53
2018-09-18T17:05:21.998Z,33.57
2018-09-18T17:07:50.823Z,37.37
2018-09-18T17:10:19.641Z,8.73
2018-09-18T17:12:47.390Z,8.37
2018-09-18T17:15:16.321Z,7.40
2018-09-18T17:17:45.002Z,16.67
2018-09-18T17:20:13.446Z,38.13
2018-09-18T17:22:42.197Z,25.03
2018-09-18T17:25:10.727Z,7.87
2018-09-18T17:27:39.263Z,8.13
2018-09-18T17:30:07.582Z,7.70
2018-09-18T17:32:35.924Z,7.73
2018-09-18T17:35:04.244Z,6.77
2018-09-18T17:37:32.583Z,7.60
2018-09-18T17:40:01.059Z,8.00
2018-09-18T17:42:29.307Z,8.10
2018-09-18T17:44:59.949Z,8.37
2018-09-18T17:47:28.309Z,8.10
2018-09-18T17:49:56.067Z,8.30
2018-09-18T17:52:24.999Z,8.37
2018-09-18T17:54:53.593Z,8.50
2018-09-18T17:57:22.864Z,8.00
2018-09-18T17:59:52.510Z,8.13
2018-09-18T18:02:21.154Z,8.00
2018-09-18T18:04:50.548Z,62.53
2018-09-18T18:07:18.337Z,49.97
2018-09-18T18:09:46.729Z,13.10
2018-09-18T18:12:15.686Z,11.67
2018-09-18T18:14:44.026Z,9.03
2018-09-18T18:17:19.403Z,12.07
2018-09-18T18:19:48.297Z,26.17
2018-09-18T18:22:16.669Z,29.87
2018-09-18T18:24:44.999Z,28.33
2018-09-18T18:27:13.376Z,26.73
2018-09-18T18:29:41.217Z,23.33
2018-09-18T18:32:10.113Z,17.30
2018-09-18T18:34:38.488Z,12.33
2018-09-18T18:37:07.087Z,10.77
2018-09-18T18:39:36.225Z,10.00
2018-09-18T18:42:04.563Z,10.37
2018-09-18T18:44:32.946Z,9.37
2018-09-18T18:47:02.563Z,9.47
2018-09-18T18:49:30.319Z,9.70
2018-09-18T18:51:59.249Z,12.43
2018-09-18T18:54:27.637Z,14.60
2018-09-18T18:56:56.898Z,18.30
2018-09-18T18:59:24.972Z,17.47
2018-09-18T19:01:52.732Z,26.73
2018-09-18T19:04:21.902Z,31.77
2018-09-18T19:06:50.891Z,78.33
2018-09-18T19:09:21.963Z,21.93
2018-09-18T19:11:49.433Z,20.80
2018-09-18T19:14:17.805Z,21.67
2018-09-18T19:16:46.385Z,21.53
2018-09-18T19:19:14.715Z,21.67
2018-09-18T19:21:43.133Z,20.23
2018-09-18T19:24:11.524Z,20.90
2018-09-18T19:26:39.898Z,18.53
2018-09-18T19:29:08.251Z,14.53
2018-09-18T19:31:36.603Z,14.00
2018-09-18T19:34:04.952Z,12.83
2018-09-18T19:36:34.110Z,13.93
2018-09-18T19:39:04.802Z,14.80
2018-09-18T19:47:34.911Z,12.67
2018-09-18T19:50:03.223Z,15.30
2018-09-18T19:55:51.257Z,21.00
2018-09-18T19:58:15.226Z,24.67
2018-09-18T20:00:43.599Z,54.20
2018-09-18T20:03:11.374Z,25.10
2018-09-18T20:05:40.377Z,20.30
2018-09-18T20:08:09.232Z,26.30
2018-09-18T20:10:37.520Z,29.43
2018-09-18T20:13:05.998Z,27.37
2018-09-18T20:15:33.765Z,25.27
2018-09-18T20:18:03.913Z,24.87
2018-09-18T20:20:32.624Z,24.67
2018-09-18T20:23:02.096Z,24.23
2018-09-18T20:25:30.796Z,23.93
2018-09-18T20:28:00.318Z,24.67
2018-09-18T20:30:28.669Z,27.87
2018-09-18T20:32:56.415Z,25.00
2018-09-18T20:35:25.589Z,25.27
2018-09-18T20:37:55.080Z,24.67
2018-09-18T20:40:22.050Z,25.17
2018-09-18T20:42:50.661Z,25.27
2018-09-18T20:45:18.787Z,23.83
2018-09-18T20:47:47.155Z,25.13
2018-09-18T20:50:15.511Z,25.60
2018-09-18T20:52:43.850Z,51.10
2018-09-18T20:55:12.204Z,56.23
2018-09-18T20:57:40.038Z,50.40
2018-09-18T21:00:08.919Z,25.97
2018-09-18T21:02:36.820Z,21.70
2018-09-18T21:05:05.636Z,22.33
2018-09-18T21:07:33.980Z,21.43
2018-09-18T21:10:01.729Z,21.63
2018-09-18T21:12:30.070Z,19.37
2018-09-18T21:14:59.027Z,19.83
2018-09-18T21:17:27.371Z,19.97
2018-09-18T21:19:55.134Z,19.53
2018-09-18T21:22:24.056Z,16.87
2018-09-18T21:24:52.414Z,17.30
2018-09-18T21:27:20.760Z,17.30
2018-09-18T21:29:48.507Z,16.10
2018-09-18T21:32:17.432Z,15.70
2018-09-18T21:34:45.180Z,15.63
2018-09-18T21:37:13.514Z,15.50
2018-09-18T21:39:42.433Z,15.83
2018-09-18T21:42:10.192Z,15.87
2018-09-18T21:44:39.112Z,17.27
2018-09-18T21:47:07.453Z,18.63
2018-09-18T21:49:35.865Z,21.23
2018-09-18T21:52:04.205Z,26.97
2018-09-18T21:54:31.950Z,29.00
2018-09-18T21:57:00.298Z,29.83
2018-09-18T21:59:29.218Z,28.07
2018-09-18T22:01:57.546Z,26.10
2018-09-18T22:04:25.298Z,23.73
2018-09-18T22:06:54.217Z,20.00
2018-09-18T22:09:22.539Z,19.13
2018-09-18T22:11:50.296Z,18.60
2018-09-18T22:14:19.216Z,19.10
2018-09-18T22:16:47.030Z,18.50
2018-09-18T22:19:15.958Z,18.40
2018-09-18T22:21:44.298Z,18.77
2018-09-18T22:24:12.635Z,19.27
2018-09-18T22:26:41.826Z,18.10
2018-09-18T22:29:10.151Z,18.50
2018-09-18T22:31:37.922Z,18.13
2018-09-18T22:34:06.901Z,19.07
2018-09-18T22:36:35.175Z,18.67
2018-09-18T22:39:02.917Z,19.40
2018-09-18T22:41:31.264Z,19.00
2018-09-18T22:44:00.183Z,18.63
2018-09-18T22:46:28.509Z,18.57
2018-09-18T22:48:56.871Z,20.67
2018-09-18T22:51:24.616Z,19.00
2018-09-18T22:53:52.966Z,20.70
2018-09-18T22:56:21.890Z,19.47
2018-09-18T22:58:50.239Z,21.17
2018-09-18T23:01:18.710Z,20.20
2018-09-18T23:03:47.062Z,19.47
2018-09-18T23:06:15.405Z,20.47
2018-09-18T23:08:43.744Z,20.33
2018-09-18T23:11:12.105Z,21.33
2018-09-18T23:13:40.427Z,17.97
2018-09-18T23:16:08.183Z,22.43
2018-09-18T23:18:36.644Z,22.73
2018-09-18T23:21:04.894Z,22.27
2018-09-18T23:23:33.808Z,12.00
2018-09-18T23:26:02.159Z,23.03
2018-09-18T23:28:31.621Z,19.80
2018-09-18T23:30:59.249Z,21.77
2018-09-18T23:33:27.606Z,19.83
2018-09-18T23:35:55.942Z,17.20
2018-09-18T23:38:24.858Z,17.03
2018-09-18T23:40:52.031Z,18.23
2018-09-18T23:43:20.355Z,16.70
2018-09-18T23:45:48.962Z,15.27
2018-09-18T23:48:17.796Z,14.37
2018-09-18T23:50:46.837Z,17.00
2018-09-18T23:53:14.971Z,15.93
2018-09-18T23:55:43.370Z,16.30
2018-09-18T23:58:11.807Z,12.47
